Time;durP1;ratioP1;P1;durP2;ratioP2;P2;SDS_P1;SDS_P2;PMS_P1;PMS_P2;Temp;Humidity;BMP_temperature;BMP_pressure;BME280_temperature;BME280_humidity;BME280_pressure;Samples;Min_cycle;Max_cycle;Signal;HPM_P1;HPM_P2
2023/11/23 00:01:36;;;;;;;18.75;9.77;;;;;;;4.78;100.00;101675.00;4906626;29;20052;-73
2023/11/23 00:04:02;;;;;;;17.63;9.40;;;;;;;4.81;100.00;101664.81;4911842;29;20050;-74
2023/11/23 00:06:28;;;;;;;19.05;9.20;;;;;;;4.86;100.00;101656.19;4894409;29;20778;-73
2023/11/23 00:08:53;;;;;;;18.65;9.85;;;;;;;4.91;100.00;101656.38;4907318;29;20048;-73
2023/11/23 00:11:19;;;;;;;18.58;9.10;;;;;;;4.93;100.00;101662.28;4904996;29;20039;-72
2023/11/23 00:13:45;;;;;;;15.95;8.88;;;;;;;4.98;100.00;101641.25;4924669;29;20764;-74
2023/11/23 00:16:12;;;;;;;20.00;9.45;;;;;;;5.02;100.00;101647.78;4904406;29;20585;-75
2023/11/23 00:18:37;;;;;;;21.90;8.85;;;;;;;5.06;100.00;101646.31;4898343;29;20095;-76
2023/11/23 00:21:03;;;;;;;17.25;8.88;;;;;;;5.09;100.00;101619.34;4908694;29;20047;-74
2023/11/23 00:23:31;;;;;;;16.92;9.48;;;;;;;5.14;100.00;101638.09;4894727;29;20043;-74
2023/11/23 00:25:58;;;;;;;18.77;9.93;;;;;;;5.17;100.00;101611.13;4919107;29;20042;-75
2023/11/23 00:28:24;;;;;;;18.25;9.10;;;;;;;5.20;100.00;101615.19;4903827;29;20040;-74
2023/11/23 00:30:50;;;;;;;20.25;10.35;;;;;;;5.23;100.00;101622.75;4904166;29;20107;-75
2023/11/23 00:33:18;;;;;;;20.05;10.68;;;;;;;5.26;100.00;101601.06;4906066;29;20051;-77
2023/11/23 00:35:43;;;;;;;16.73;9.48;;;;;;;5.25;100.00;101595.97;4928412;29;20039;-75
2023/11/23 00:38:11;;;;;;;21.65;11.60;;;;;;;5.29;100.00;101597.19;4911839;29;20577;-74
2023/11/23 00:40:40;;;;;;;18.23;10.70;;;;;;;5.30;100.00;101588.19;4908222;29;20577;-76
2023/11/23 00:43:06;;;;;;;21.80;10.73;;;;;;;5.32;100.00;101586.94;4877039;29;20138;-73
2023/11/23 00:45:33;;;;;;;20.33;9.88;;;;;;;5.31;100.00;101587.16;4889571;29;20107;-73
2023/11/23 00:48:02;;;;;;;19.17;9.60;;;;;;;5.33;100.00;101593.06;4901911;29;20052;-72
2023/11/23 00:50:29;;;;;;;17.55;10.18;;;;;;;5.32;100.00;101586.13;4916491;29;20036;-74
2023/11/23 00:52:55;;;;;;;20.05;9.52;;;;;;;5.34;100.00;101584.06;4922362;29;20036;-72
2023/11/23 00:55:21;;;;;;;20.08;9.93;;;;;;;5.35;100.00;101578.56;4903995;29;20062;-74
2023/11/23 00:57:47;;;;;;;18.33;9.05;;;;;;;5.40;100.00;101577.91;4921467;29;20059;-73
2023/11/23 01:00:16;;;;;;;19.45;9.43;;;;;;;5.43;100.00;101580.16;4914565;29;20043;-72
2023/11/23 01:02:43;;;;;;;22.02;10.35;;;;;;;5.45;100.00;101575.41;4910384;29;20088;-74
2023/11/23 01:05:15;;;;;;;17.58;9.55;;;;;;;5.54;100.00;101584.75;4884711;29;20036;-74
2023/11/23 01:07:44;;;;;;;19.45;9.82;;;;;;;5.57;100.00;101578.22;4924512;29;20047;-70
2023/11/23 01:10:10;;;;;;;16.75;9.55;;;;;;;5.60;100.00;101581.22;4908922;29;20087;-71
2023/11/23 01:12:36;;;;;;;18.55;8.80;;;;;;;5.64;100.00;101568.34;4907376;29;20543;-70
2023/11/23 01:15:02;;;;;;;;;;;;;;;5.68;100.00;101564.19;4915102;29;20055;-73
2023/11/23 01:17:34;;;;;;;16.58;9.07;;;;;;;5.72;100.00;101576.03;4901445;29;20002;-74
2023/11/23 01:19:59;;;;;;;17.67;8.63;;;;;;;5.75;100.00;101571.09;4908356;29;20112;-73
2023/11/23 01:22:27;;;;;;;18.70;10.98;;;;;;;5.81;100.00;101581.88;4902981;29;20248;-73
2023/11/23 01:24:56;;;;;;;21.55;10.60;;;;;;;5.85;100.00;101577.78;4908724;29;20058;-73
2023/11/23 01:27:23;;;;;;;23.08;11.18;;;;;;;5.86;100.00;101577.56;4881436;29;21065;-71
2023/11/23 01:29:50;;;;;;;16.08;9.85;;;;;;;5.89;100.00;101578.94;4886860;29;20035;-72
2023/11/23 01:32:16;;;;;;;19.77;10.43;;;;;;;5.91;100.00;101571.63;4924460;29;20035;-73
2023/11/23 01:34:42;;;;;;;23.77;12.60;;;;;;;5.95;100.00;101581.59;4898059;29;20040;-72
2023/11/23 01:37:08;;;;;;;23.63;10.77;;;;;;;5.99;100.00;101576.66;4899354;29;20044;-71
2023/11/23 01:39:34;;;;;;;;;;;;;;;6.03;100.00;101575.19;4907184;29;20056;-72
2023/11/23 01:42:00;;;;;;;22.50;11.27;;;;;;;6.05;100.00;101573.13;4922858;29;19926;-74
2023/11/23 01:44:26;;;;;;;24.25;12.43;;;;;;;6.05;100.00;101575.78;4901754;29;20235;-72
2023/11/23 01:46:53;;;;;;;21.15;11.57;;;;;;;6.06;100.00;101573.94;4906797;29;20079;-73
2023/11/23 01:49:19;;;;;;;23.45;12.63;;;;;;;6.06;100.00;101566.78;4906411;29;20177;-72
2023/11/23 01:51:46;;;;;;;21.63;11.88;;;;;;;6.09;100.00;101570.81;4887851;29;20032;-73
2023/11/23 01:54:11;;;;;;;;;;;;;;;6.11;100.00;101563.47;4914204;29;20039;-73
2023/11/23 01:56:41;;;;;;;21.23;9.82;;;;;;;6.12;100.00;101565.09;4902696;29;20575;-73
2023/11/23 01:59:06;;;;;;;20.60;11.30;;;;;;;6.13;100.00;101564.84;4901533;29;20118;-72
2023/11/23 02:01:34;;;;;;;19.23;10.82;;;;;;;6.15;100.00;101565.44;4906884;29;20059;-73
2023/11/23 02:04:00;;;;;;;19.42;11.10;;;;;;;6.15;100.00;101554.00;4875914;29;20043;-73
2023/11/23 02:06:25;;;;;;;21.33;12.02;;;;;;;6.17;100.00;101552.75;4907887;29;20048;-73
2023/11/23 02:08:53;;;;;;;21.52;11.57;;;;;;;6.17;100.00;101536.81;4900401;29;20040;-74
2023/11/23 02:11:19;;;;;;;21.65;11.57;;;;;;;6.19;100.00;101540.03;4920120;29;20039;-73
2023/11/23 02:13:45;;;;;;;25.83;12.82;;;;;;;6.20;100.00;101528.38;4908881;29;20047;-71
2023/11/23 02:16:11;;;;;;;22.48;12.02;;;;;;;6.21;100.00;101522.00;4905516;29;20729;-74
2023/11/23 02:18:37;;;;;;;27.55;13.02;;;;;;;6.24;100.00;101524.25;4919938;29;20532;-73
2023/11/23 02:21:04;;;;;;;;;;;;;;;6.26;100.00;101521.34;4918585;29;20115;-75
2023/11/23 02:23:31;;;;;;;22.60;11.98;;;;;;;6.27;100.00;101515.81;4922598;29;19941;-72
2023/11/23 02:25:58;;;;;;;24.92;12.65;;;;;;;6.29;100.00;101511.06;4904031;29;20103;-75
2023/11/23 02:28:24;;;;;;;23.27;12.85;;;;;;;6.31;100.00;101521.50;4915927;29;20493;-72
2023/11/23 02:30:50;;;;;;;24.67;13.15;;;;;;;6.34;100.00;101513.06;4904416;29;20035;-74
2023/11/23 02:33:16;;;;;;;25.75;13.50;;;;;;;6.35;100.00;101500.59;4887549;29;20048;-72
2023/11/23 02:35:41;;;;;;;27.73;13.73;;;;;;;6.37;100.00;101498.50;4905467;29;20043;-72
2023/11/23 02:38:07;;;;;;;24.58;13.23;;;;;;;6.43;100.00;101490.44;4918363;29;20044;-74
2023/11/23 02:40:33;;;;;;;26.15;13.15;;;;;;;6.47;100.00;101490.81;4893387;29;20043;-72
2023/11/23 02:43:03;;;;;;;;;;;;;;;6.49;100.00;101486.88;4908102;29;20170;-72
2023/11/23 02:45:28;;;;;;;30.05;15.07;;;;;;;6.50;100.00;101472.56;4889715;29;19922;-71
2023/11/23 02:47:55;;;;;;;30.63;14.82;;;;;;;6.56;100.00;101470.84;4886428;29;20036;-73
2023/11/23 02:50:20;;;;;;;30.85;14.93;;;;;;;6.66;100.00;101455.16;4905402;29;20064;-72
2023/11/23 02:52:46;;;;;;;23.67;13.70;;;;;;;6.72;100.00;101469.41;4904697;29;20126;-74
2023/11/23 02:55:13;;;;;;;29.50;14.57;;;;;;;6.77;100.00;101462.38;4898152;29;20063;-74
2023/11/23 02:57:42;;;;;;;28.35;13.98;;;;;;;6.82;100.00;101459.03;4899679;29;20182;-73
2023/11/23 03:00:11;;;;;;;28.98;15.43;;;;;;;6.84;100.00;101452.44;4902752;29;20494;-72
2023/11/23 03:02:40;;;;;;;23.73;13.70;;;;;;;6.89;100.00;101458.91;4907165;29;20546;-72
2023/11/23 03:05:07;;;;;;;25.77;12.93;;;;;;;6.93;100.00;101455.59;4906848;29;20352;-73
2023/11/23 03:07:33;;;;;;;25.55;13.43;;;;;;;6.95;100.00;101466.81;4879465;29;20071;-73
2023/11/23 03:10:01;;;;;;;29.60;14.07;;;;;;;6.98;100.00;101462.91;4904840;29;20185;-73
2023/11/23 03:12:26;;;;;;;31.70;15.73;;;;;;;6.98;100.00;101446.91;4904161;29;20044;-72
2023/11/23 03:14:52;;;;;;;26.98;14.98;;;;;;;7.00;100.00;101455.50;4903042;29;20538;-72
2023/11/23 03:17:19;;;;;;;27.25;14.57;;;;;;;7.01;100.00;101446.47;4890034;29;20039;-72
2023/11/23 03:19:44;;;;;;;24.50;12.82;;;;;;;7.01;100.00;101446.47;4892122;29;20410;-72
2023/11/23 03:22:10;;;;;;;25.10;14.15;;;;;;;7.03;100.00;101436.38;4926156;29;20501;-73
2023/11/23 03:24:35;;;;;;;30.33;15.50;;;;;;;7.01;100.00;101436.59;4886483;29;20044;-72
2023/11/23 03:27:01;;;;;;;29.95;14.85;;;;;;;7.01;100.00;101435.81;4875740;29;20035;-72
2023/11/23 03:29:27;;;;;;;26.20;14.85;;;;;;;7.00;100.00;101428.84;4879509;29;20123;-72
2023/11/23 03:31:53;;;;;;;28.35;14.63;;;;;;;7.01;100.00;101430.47;4906462;29;20043;-73
2023/11/23 03:34:18;;;;;;;27.08;14.43;;;;;;;7.01;100.00;101428.63;4904233;29;20497;-73
2023/11/23 03:36:44;;;;;;;31.73;15.25;;;;;;;7.01;100.00;101433.94;4903877;29;20044;-74
2023/11/23 03:39:10;;;;;;;29.90;14.48;;;;;;;7.04;100.00;101424.69;4891710;29;20067;-72
2023/11/23 03:41:35;;;;;;;28.55;14.52;;;;;;;7.08;100.00;101425.84;4888126;29;20088;-72
2023/11/23 03:44:01;;;;;;;27.15;14.50;;;;;;;7.05;100.00;101413.81;4902084;29;20099;-73
2023/11/23 03:46:26;;;;;;;28.63;14.68;;;;;;;7.07;100.00;101425.03;4901477;29;20600;-73
2023/11/23 03:48:54;;;;;;;27.05;15.13;;;;;;;7.09;100.00;101419.47;4904473;29;20031;-73
2023/11/23 03:51:19;;;;;;;31.52;15.55;;;;;;;7.12;100.00;101413.72;4873953;29;20046;-72
2023/11/23 03:53:45;;;;;;;25.58;13.05;;;;;;;7.13;100.00;101402.00;4909109;29;20035;-74
2023/11/23 03:56:18;;;;;;;29.23;14.75;;;;;;;7.17;100.00;101408.47;4886199;29;20118;-74
2023/11/23 03:58:47;;;;;;;25.88;14.25;;;;;;;7.17;100.00;101403.16;4921459;29;20047;-71
2023/11/23 04:01:14;;;;;;;26.63;15.07;;;;;;;7.19;100.00;101395.75;4919731;29;20036;-73
2023/11/23 04:03:44;;;;;;;23.05;13.23;;;;;;;7.22;100.00;101403.28;4920742;29;20039;-72
2023/11/23 04:06:11;;;;;;;26.85;15.45;;;;;;;7.27;100.00;101402.59;4899142;29;20527;-73
2023/11/23 04:08:40;;;;;;;26.50;14.27;;;;;;;7.28;100.00;101391.69;4890611;29;20221;-72
2023/11/23 04:11:07;;;;;;;24.05;14.88;;;;;;;7.32;100.00;101395.53;4877452;29;20032;-72
2023/11/23 04:13:33;;;;;;;26.48;13.95;;;;;;;7.35;100.00;101383.59;4896811;29;20138;-74
2023/11/23 04:16:00;;;;;;;23.67;13.50;;;;;;;7.37;100.00;101392.16;4922831;29;20516;-74
2023/11/23 04:18:26;;;;;;;26.02;12.95;;;;;;;7.39;100.00;101384.75;4901827;29;20036;-72
2023/11/23 04:20:51;;;;;;;23.35;13.30;;;;;;;7.41;100.00;101368.53;4884358;29;20024;-73
2023/11/23 04:23:17;;;;;;;26.65;13.82;;;;;;;7.43;100.00;101358.44;4904454;29;20048;-73
2023/11/23 04:25:43;;;;;;;;;;;;;;;7.47;100.00;101365.75;4886671;29;20123;-74
2023/11/23 04:28:09;;;;;;;23.33;12.43;;;;;;;7.51;100.00;101371.41;4921714;29;19957;-74
2023/11/23 04:30:35;;;;;;;24.60;13.43;;;;;;;7.53;100.00;101367.47;4900613;29;20052;-74
2023/11/23 04:33:01;;;;;;;23.70;13.32;;;;;;;7.54;100.00;101369.09;4917870;29;20039;-73
2023/11/23 04:35:27;;;;;;;24.50;13.52;;;;;;;7.57;100.00;101354.47;4902845;29;20036;-73
2023/11/23 04:37:53;;;;;;;22.63;12.55;;;;;;;7.57;100.00;101357.16;4911649;29;20528;-73
2023/11/23 04:40:19;;;;;;;26.75;13.95;;;;;;;7.60;100.00;101362.03;4923132;29;20122;-74
2023/11/23 04:42:45;;;;;;;23.38;13.40;;;;;;;7.62;100.00;101357.25;4907441;29;20234;-72
2023/11/23 04:45:11;;;;;;;24.23;13.10;;;;;;;7.62;100.00;101351.94;4903966;29;20521;-73
2023/11/23 04:47:37;;;;;;;23.35;13.30;;;;;;;7.63;100.00;101358.88;4913162;29;20102;-74
2023/11/23 04:50:03;;;;;;;24.80;13.70;;;;;;;7.67;100.00;101365.38;4895938;29;20078;-75
2023/11/23 04:52:29;;;;;;;26.63;13.48;;;;;;;7.68;100.00;101353.66;4907640;29;20126;-73
2023/11/23 04:54:55;;;;;;;23.23;13.10;;;;;;;7.70;100.00;101354.22;4923415;29;20170;-74
2023/11/23 04:57:22;;;;;;;27.40;13.50;;;;;;;7.73;100.00;101367.09;4921022;29;20082;-73
2023/11/23 04:59:49;;;;;;;26.90;14.45;;;;;;;7.75;100.00;101351.69;4900044;29;20032;-74
2023/11/23 05:02:16;;;;;;;24.38;12.90;;;;;;;7.76;100.00;101358.63;4920871;29;20040;-73
2023/11/23 05:04:42;;;;;;;23.70;12.80;;;;;;;7.79;100.00;101338.66;4896901;29;20040;-73
2023/11/23 05:07:07;;;;;;;23.08;13.88;;;;;;;7.80;100.00;101325.13;4913774;29;20040;-72
2023/11/23 05:09:33;;;;;;;26.40;13.95;;;;;;;7.81;100.00;101321.41;4908741;29;20040;-72
2023/11/23 05:12:00;;;;;;;23.38;13.13;;;;;;;7.84;100.00;101318.25;4906102;29;20576;-73
2023/11/23 05:14:26;;;;;;;27.25;14.73;;;;;;;7.86;100.00;101305.50;4905105;29;20051;-73
2023/11/23 05:16:51;;;;;;;23.35;12.43;;;;;;;7.90;100.00;101316.50;4911135;29;20114;-73
2023/11/23 05:19:19;;;;;;;26.83;14.15;;;;;;;7.91;100.00;101308.25;4911319;29;20044;-73
2023/11/23 05:21:45;;;;;;;28.70;13.80;;;;;;;7.94;100.00;101302.47;4907701;29;20051;-74
2023/11/23 05:24:11;;;;;;;25.05;13.05;;;;;;;7.98;100.00;101301.97;4923584;29;20042;-72
2023/11/23 05:26:39;;;;;;;33.17;13.70;;;;;;;8.01;100.00;101309.50;4889118;29;20824;-73
2023/11/23 05:29:04;;;;;;;25.55;12.68;;;;;;;8.05;100.00;101306.09;4904431;29;20027;-73
2023/11/23 05:31:30;;;;;;;29.20;13.95;;;;;;;8.11;100.00;101315.81;4926116;29;20031;-73
2023/11/23 05:33:55;;;;;;;24.02;12.75;;;;;;;8.13;100.00;101310.28;4887862;29;20044;-73
2023/11/23 05:36:21;;;;;;;28.13;11.65;;;;;;;8.15;100.00;101321.50;4908270;29;20042;-71
2023/11/23 05:38:47;;;;;;;;;;;;;;;8.18;100.00;101313.00;4923259;29;20043;-73
2023/11/23 05:41:13;;;;;;;28.90;11.80;;;;;;;8.24;100.00;101311.25;4893227;29;19922;-74
2023/11/23 05:43:40;;;;;;;24.13;11.40;;;;;;;8.29;100.00;101309.47;4925116;29;20083;-73
2023/11/23 05:46:07;;;;;;;21.02;9.82;;;;;;;8.33;100.00;101299.97;4908183;29;20513;-72
2023/11/23 05:48:32;;;;;;;;;;;;;;;8.38;100.00;101304.59;4907300;29;20032;-73
2023/11/23 05:50:58;;;;;;;29.30;11.80;;;;;;;8.37;100.00;101295.78;4926843;29;21278;-75
2023/11/23 05:53:24;;;;;;;23.65;10.77;;;;;;;8.38;100.00;101289.38;4921347;29;20051;-73
2023/11/23 05:55:50;;;;;;;23.90;10.00;;;;;;;8.42;100.00;101279.84;4903074;29;20032;-73
2023/11/23 05:58:15;;;;;;;22.92;10.73;;;;;;;8.45;100.00;101283.88;4912941;29;20062;-72
2023/11/23 06:00:42;;;;;;;27.25;11.63;;;;;;;8.47;100.00;101274.59;4907357;29;20058;-72
2023/11/23 06:03:07;;;;;;;24.65;9.45;;;;;;;8.52;100.00;101276.53;4924884;29;20047;-71
2023/11/23 06:05:35;;;;;;;25.30;9.73;;;;;;;8.59;100.00;101281.69;4906588;29;20043;-73
2023/11/23 06:08:01;;;;;;;20.40;9.10;;;;;;;8.60;100.00;101276.16;4909366;29;20035;-75
2023/11/23 06:10:28;;;;;;;;;;;;;;;8.65;100.00;101275.41;4894087;29;20067;-73
2023/11/23 06:12:53;;;;;;;26.10;8.32;;;;;;;8.65;100.00;101267.38;4889325;29;19930;-73
2023/11/23 06:15:19;;;;;;;19.00;7.78;;;;;;;8.67;100.00;101274.13;4912387;29;20039;-73
2023/11/23 06:17:45;;;;;;;20.60;8.43;;;;;;;8.71;100.00;101263.75;4918692;29;20523;-73
2023/11/23 06:20:12;;;;;;;16.02;6.60;;;;;;;8.74;100.00;101264.06;4923251;29;20051;-73
2023/11/23 06:22:38;;;;;;;20.85;7.90;;;;;;;8.78;100.00;101259.03;4909679;29;20036;-75
2023/11/23 06:25:04;;;;;;;20.25;8.00;;;;;;;8.81;100.00;101263.91;4922395;29;20031;-75
2023/11/23 06:27:32;;;;;;;19.00;7.00;;;;;;;8.84;100.00;101260.72;4878445;29;20039;-72
2023/11/23 06:29:57;;;;;;;21.48;7.18;;;;;;;8.87;100.00;101256.75;4918039;29;20043;-74
2023/11/23 06:32:24;;;;;;;17.23;6.35;;;;;;;8.90;100.00;101251.75;4924722;29;20051;-73
2023/11/23 06:34:50;;;;;;;19.10;7.13;;;;;;;8.91;100.00;101248.00;4878960;29;20504;-74
2023/11/23 06:37:15;;;;;;;18.38;7.43;;;;;;;8.92;100.00;101238.94;4921504;29;20032;-70
2023/11/23 06:39:42;;;;;;;23.10;7.63;;;;;;;8.94;100.00;101234.19;4922132;29;20039;-72
2023/11/23 06:42:07;;;;;;;17.17;6.47;;;;;;;8.98;100.00;101231.81;4909670;29;20040;-73
2023/11/23 06:44:33;;;;;;;17.60;6.13;;;;;;;8.98;100.00;101219.25;4909271;29;20039;-73
2023/11/23 06:47:00;;;;;;;19.40;5.88;;;;;;;9.00;100.00;101211.78;4910338;29;20482;-72
2023/11/23 06:49:26;;;;;;;18.17;6.72;;;;;;;9.02;100.00;101220.41;4903385;29;20062;-71
2023/11/23 06:51:52;;;;;;;21.67;6.50;;;;;;;9.03;100.00;101218.53;4906115;29;20150;-71
2023/11/23 06:54:18;;;;;;;15.65;5.57;;;;;;;9.06;100.00;101217.22;4927416;29;20110;-72
2023/11/23 06:56:44;;;;;;;21.63;6.03;;;;;;;9.07;100.00;101213.47;4904481;29;20100;-72
2023/11/23 06:59:10;;;;;;;16.17;5.90;;;;;;;9.07;100.00;101210.81;4902246;29;20036;-72
2023/11/23 07:01:36;;;;;;;15.73;5.53;;;;;;;9.06;100.00;101201.19;4910445;29;20043;-73
2023/11/23 07:04:04;;;;;;;12.95;4.78;;;;;;;9.08;100.00;101186.53;4920548;29;20032;-72
2023/11/23 07:06:31;;;;;;;21.25;5.53;;;;;;;9.09;100.00;101190.00;4928525;29;20560;-71
2023/11/23 07:08:57;;;;;;;14.38;5.05;;;;;;;9.11;100.00;101182.56;4905971;29;20147;-72
2023/11/23 07:11:23;;;;;;;17.38;4.72;;;;;;;9.11;100.00;101183.34;4887616;29;20048;-74
2023/11/23 07:13:51;;;;;;;17.42;5.47;;;;;;;9.14;100.00;101182.03;4920208;29;20040;-72
2023/11/23 07:16:17;;;;;;;17.27;5.10;;;;;;;9.17;100.00;101171.66;4908554;29;20036;-72
2023/11/23 07:18:43;;;;;;;14.07;5.03;;;;;;;9.18;100.00;101161.78;4907663;29;20068;-73
2023/11/23 07:21:09;;;;;;;15.05;4.90;;;;;;;9.19;100.00;101158.84;4918867;29;20032;-74
2023/11/23 07:23:37;;;;;;;17.23;4.63;;;;;;;9.21;100.00;101145.25;4903723;29;20058;-72
2023/11/23 07:26:05;;;;;;;11.77;4.28;;;;;;;9.23;100.00;101143.97;4905193;29;20119;-73
2023/11/23 07:28:32;;;;;;;12.98;4.55;;;;;;;9.23;100.00;101140.47;4917870;29;20035;-74
2023/11/23 07:30:57;;;;;;;13.93;4.05;;;;;;;9.21;100.00;101145.25;4906537;29;20082;-73
2023/11/23 07:33:33;;;;;;;16.92;4.78;;;;;;;9.23;100.00;101135.94;4909642;29;20040;-74
2023/11/23 07:36:04;;;;;;;14.10;4.22;;;;;;;9.27;100.00;101144.25;4911096;29;20040;-73
2023/11/23 07:38:32;;;;;;;12.45;4.45;;;;;;;9.28;100.00;101132.53;4924925;29;20040;-74
2023/11/23 07:41:01;;;;;;;14.25;4.00;;;;;;;9.31;100.00;101140.03;4887760;29;20122;-73
2023/11/23 07:43:27;;;;;;;12.45;3.75;;;;;;;9.33;100.00;101143.25;4920218;29;20062;-70
2023/11/23 07:45:53;;;;;;;13.32;4.22;;;;;;;9.33;100.00;101143.25;4922231;29;20046;-72
2023/11/23 07:48:19;;;;;;;14.55;3.67;;;;;;;9.37;100.00;101144.38;4893222;29;20032;-74
2023/11/23 07:50:44;;;;;;;13.52;3.47;;;;;;;9.36;100.00;101136.59;4921755;29;20043;-74
2023/11/23 07:53:11;;;;;;;15.98;3.80;;;;;;;9.36;100.00;101126.72;4905542;29;20091;-73
2023/11/23 07:55:37;;;;;;;13.18;4.13;;;;;;;9.38;100.00;101142.50;4904904;29;20047;-73
2023/11/23 07:58:03;;;;;;;13.60;3.53;;;;;;;9.42;100.00;101136.41;4906919;29;20043;-74
2023/11/23 08:00:30;;;;;;;20.17;3.78;;;;;;;9.45;100.00;101143.09;4902870;29;20043;-71
2023/11/23 08:02:55;;;;;;;14.73;3.17;;;;;;;9.45;100.00;101133.22;4906653;29;20055;-73
2023/11/23 08:05:21;;;;;;;15.55;3.92;;;;;;;9.45;100.00;101125.19;4923988;29;20039;-73
2023/11/23 08:07:50;;;;;;;13.85;3.63;;;;;;;9.47;100.00;101116.91;4920785;29;20055;-71
2023/11/23 08:10:16;;;;;;;16.40;3.38;;;;;;;9.49;100.00;101120.97;4892381;29;20035;-72
2023/11/23 08:12:43;;;;;;;14.68;3.42;;;;;;;9.52;100.00;101112.44;4897996;29;20531;-73
2023/11/23 08:15:12;;;;;;;15.23;3.22;;;;;;;9.55;100.00;101105.75;4910732;29;20042;-74
2023/11/23 08:17:40;;;;;;;15.68;3.33;;;;;;;9.57;100.00;101096.44;4901605;29;20082;-72
2023/11/23 08:20:12;;;;;;;11.98;3.08;;;;;;;9.58;100.00;101089.22;4923649;29;20034;-72
2023/11/23 08:22:38;;;;;;;9.80;2.88;;;;;;;9.60;100.00;101095.13;4909914;29;20036;-73
2023/11/23 08:25:05;;;;;;;12.77;2.72;;;;;;;9.60;100.00;101105.81;4902029;29;20040;-73
2023/11/23 08:27:31;;;;;;;12.55;2.63;;;;;;;9.61;100.00;101098.59;4907110;29;20756;-73
2023/11/23 08:29:57;;;;;;;11.00;2.55;;;;;;;9.65;100.00;101097.84;4904888;29;20181;-73
2023/11/23 08:32:22;;;;;;;15.32;2.70;;;;;;;9.67;100.00;101105.59;4925189;29;20541;-73
2023/11/23 08:34:48;;;;;;;19.70;2.75;;;;;;;9.69;100.00;101098.16;4878824;29;20035;-72
2023/11/23 08:37:15;;;;;;;13.52;2.72;;;;;;;9.68;100.00;101096.50;4926599;29;20452;-71
2023/11/23 08:39:41;;;;;;;12.75;2.80;;;;;;;9.70;100.00;101094.41;4922245;29;20035;-73
2023/11/23 08:42:10;;;;;;;13.27;2.53;;;;;;;9.71;100.00;101088.81;4925115;29;20051;-73
2023/11/23 08:44:37;;;;;;;10.57;2.38;;;;;;;9.70;100.00;101092.53;4895760;29;20453;-72
2023/11/23 08:47:04;;;;;;;16.38;2.50;;;;;;;9.75;100.00;101091.75;4898369;29;20051;-71
2023/11/23 08:49:31;;;;;;;17.63;2.90;;;;;;;9.76;100.00;101085.38;4908122;29;20042;-71
2023/11/23 08:51:57;;;;;;;16.23;2.47;;;;;;;9.76;100.00;101091.53;4894765;29;20647;-73
2023/11/23 08:54:25;;;;;;;13.63;2.30;;;;;;;9.77;100.00;101082.44;4909344;29;20047;-72
2023/11/23 08:56:52;;;;;;;12.55;2.42;;;;;;;9.80;100.00;101071.22;4898187;29;20040;-73
2023/11/23 08:59:18;;;;;;;11.90;2.70;;;;;;;9.81;100.00;101072.81;4905624;29;20099;-75
2023/11/23 09:01:47;;;;;;;10.65;2.20;;;;;;;9.83;100.00;101076.06;4917371;29;20062;-72
2023/11/23 09:04:14;;;;;;;10.75;2.58;;;;;;;9.87;100.00;101054.13;4905124;29;20421;-75
2023/11/23 09:06:40;;;;;;;16.05;2.50;;;;;;;9.87;100.00;101056.81;4909950;29;20039;-71
2023/11/23 09:09:06;;;;;;;9.85;2.35;;;;;;;9.89;100.00;101057.34;4921787;29;20085;-72
2023/11/23 09:11:32;;;;;;;13.07;2.30;;;;;;;9.89;100.00;101052.84;4919330;29;20036;-70
2023/11/23 09:14:00;;;;;;;14.18;2.78;;;;;;;9.90;100.00;101051.78;4908891;29;20070;-71
2023/11/23 09:16:26;;;;;;;16.35;2.40;;;;;;;9.90;100.00;101035.72;4880804;29;20078;-71
2023/11/23 09:18:53;;;;;;;11.98;2.40;;;;;;;9.90;100.00;101051.78;4900812;29;20044;-72
2023/11/23 09:21:20;;;;;;;16.83;2.55;;;;;;;9.90;100.00;101035.72;4911817;29;20465;-73
2023/11/23 09:23:46;;;;;;;12.02;2.17;;;;;;;9.92;100.00;101036.25;4904261;29;20051;-73
2023/11/23 09:26:12;;;;;;;10.60;2.33;;;;;;;9.96;100.00;101024.00;4923065;29;20032;-72
2023/11/23 09:28:38;;;;;;;10.60;2.00;;;;;;;9.98;100.00;101010.34;4924040;29;20083;-73
2023/11/23 09:31:03;;;;;;;7.55;1.92;;;;;;;9.98;100.00;101003.13;4907748;29;20039;-73
2023/11/23 09:33:31;;;;;;;12.10;2.13;;;;;;;10.02;100.00;100990.81;4927948;29;20040;-73
2023/11/23 09:36:02;;;;;;;7.90;2.55;;;;;;;10.05;100.00;100986.84;4898737;29;20524;-73
2023/11/23 09:38:28;;;;;;;12.93;2.15;;;;;;;10.07;100.00;100992.72;4900025;29;20043;-72
2023/11/23 09:41:02;;;;;;;13.32;2.58;;;;;;;10.06;100.00;100986.56;4921039;29;20043;-73
2023/11/23 09:43:31;;;;;;;14.52;1.90;;;;;;;10.06;100.00;100975.88;4896551;29;20047;-72
2023/11/23 09:45:57;;;;;;;11.30;2.15;;;;;;;10.08;100.00;100963.03;4909571;29;20598;-73
2023/11/23 09:48:27;;;;;;;12.68;2.33;;;;;;;10.13;100.00;100965.72;4924114;29;20246;-73
2023/11/23 09:50:53;;;;;;;12.13;2.20;;;;;;;10.13;100.00;100957.69;4893572;29;20497;-72
2023/11/23 09:53:19;;;;;;;10.77;1.92;;;;;;;10.18;100.00;100954.25;4924653;29;20035;-73
2023/11/23 09:55:47;;;;;;;;;;;;;;;10.19;100.00;100957.72;4927104;29;20036;-73
2023/11/23 09:58:13;;;;;;;8.70;2.08;;;;;;;10.20;100.00;100962.00;4890118;29;19922;-73
2023/11/23 10:00:39;;;;;;;11.35;1.92;;;;;;;10.23;100.00;100935.56;4906592;29;20052;-75
2023/11/23 10:03:06;;;;;;;8.93;1.88;;;;;;;10.27;100.00;100943.88;4893985;29;20055;-73
2023/11/23 10:05:33;;;;;;;10.20;2.10;;;;;;;10.27;100.00;100933.16;4926649;29;20047;-73
2023/11/23 10:07:59;;;;;;;10.25;2.03;;;;;;;10.26;100.00;100932.34;4919939;29;20169;-72
2023/11/23 10:10:27;;;;;;;11.00;2.28;;;;;;;10.26;100.00;100932.34;4891637;29;20075;-73
2023/11/23 10:12:54;;;;;;;13.25;2.20;;;;;;;10.30;100.00;100924.63;4904167;29;20194;-73
2023/11/23 10:15:22;;;;;;;9.93;1.77;;;;;;;10.30;100.00;100932.66;4899163;29;20040;-73
2023/11/23 10:17:47;;;;;;;13.80;1.88;;;;;;;10.32;100.00;100931.31;4906213;29;20497;-71
2023/11/23 10:20:15;;;;;;;8.75;1.60;;;;;;;10.35;100.00;100925.41;4923318;29;20047;-71
2023/11/23 10:22:48;;;;;;;8.80;1.67;;;;;;;10.35;100.00;100919.25;4893899;29;20036;-72
2023/11/23 10:25:35;;;;;;;13.27;1.70;;;;;;;10.35;100.00;100914.72;4905957;29;20122;-72
2023/11/23 10:28:03;;;;;;;10.90;1.88;;;;;;;10.36;100.00;100899.44;4908460;29;20498;-74
2023/11/23 10:30:30;;;;;;;10.10;1.80;;;;;;;10.43;100.00;100901.88;4893258;29;20150;-71
2023/11/23 10:32:57;;;;;;;8.30;1.70;;;;;;;10.44;100.00;100901.63;4922139;29;20032;-72
2023/11/23 10:35:52;;;;;;;10.75;1.80;;;;;;;10.47;100.00;100890.38;4907553;29;20042;-73
2023/11/23 10:38:22;;;;;;;6.55;1.63;;;;;;;10.52;100.00;100887.72;4901281;29;20126;-73
2023/11/23 10:40:48;;;;;;;9.20;1.90;;;;;;;10.55;100.00;100891.72;4902338;29;20513;-74
2023/11/23 10:43:17;;;;;;;10.02;1.70;;;;;;;10.53;100.00;100881.28;4890218;29;20086;-72
2023/11/23 10:45:44;;;;;;;9.50;1.52;;;;;;;10.53;100.00;100883.97;4919741;29;20119;-72
2023/11/23 10:48:12;;;;;;;8.98;2.13;;;;;;;10.57;100.00;100877.03;4909558;29;20032;-72
2023/11/23 10:50:37;;;;;;;6.95;1.67;;;;;;;10.61;100.00;100879.97;4921886;29;20111;-72
2023/11/23 10:53:03;;;;;;;6.15;1.42;;;;;;;10.63;100.00;100881.31;4889794;29;20126;-74
2023/11/23 10:55:29;;;;;;;10.38;1.80;;;;;;;10.63;100.00;100867.94;4902920;29;20130;-72
2023/11/23 10:58:01;;;;;;;6.15;1.50;;;;;;;10.65;100.00;100860.44;4908192;29;20418;-73
2023/11/23 11:00:30;;;;;;;8.40;1.67;;;;;;;10.65;100.00;100855.06;4889763;29;20040;-73
2023/11/23 11:03:02;;;;;;;10.38;1.95;;;;;;;10.66;100.00;100855.88;4914675;29;20036;-72
2023/11/23 11:05:30;;;;;;;10.20;1.70;;;;;;;10.69;100.00;100843.81;4905934;29;20478;-73
2023/11/23 11:08:01;;;;;;;7.78;2.00;;;;;;;10.68;100.00;100848.38;4923491;29;20070;-72
2023/11/23 11:10:41;;;;;;;8.02;1.65;;;;;;;10.74;100.00;100838.47;4903854;29;20123;-73
2023/11/23 11:13:12;;;;;;;11.68;1.65;;;;;;;10.74;100.00;100833.09;4907035;29;20044;-73
2023/11/23 11:16:03;;;;;;;9.68;1.60;;;;;;;10.74;100.00;100825.06;4902132;29;20155;-73